Terminal Aerodrome Forecast
Issued by NWS

Home | Current Version | Previous Version | Text Only | Print | Product List | Glossary On
Versions: 1 2 3 4 5 6 7 8 9 10 11 12
000
FTUS42 KGSP 241128
TAFHKY
TAF
KHKY 241128Z 2412/2512 19004KT P6SM FEW050 OVC090
     FM241500 21005KT P6SM BKN060
     FM250100 21003KT P6SM SCT040=

USA.gov is the U.S. government's official web portal to all federal, state and local government web resources and services.